createdAt,value
2023-04-18T00:02:03.787Z,9.87
2023-04-18T00:04:34.052Z,8.82
2023-04-18T00:07:02.484Z,5.50
2023-04-18T00:09:30.713Z,6.93
2023-04-18T00:11:59.108Z,8.18
2023-04-18T00:14:29.013Z,6.05
2023-04-18T00:16:57.340Z,6.30
2023-04-18T00:19:25.661Z,4.72
2023-04-18T00:21:55.932Z,5.25
2023-04-18T00:24:24.267Z,4.65
2023-04-18T00:26:52.466Z,6.85
2023-04-18T00:29:20.653Z,6.60
2023-04-18T00:31:48.913Z,4.00
2023-04-18T00:34:17.140Z,6.07
2023-04-18T00:36:47.007Z,6.10
2023-04-18T00:39:17.656Z,5.75
2023-04-18T00:41:45.962Z,8.55
2023-04-18T00:44:14.514Z,4.95
2023-04-18T00:46:43.023Z,5.50
2023-04-18T00:49:11.442Z,10.43
2023-04-18T00:51:40.858Z,5.15
2023-04-18T00:54:09.541Z,5.00
2023-04-18T00:56:39.279Z,4.33
2023-04-18T00:59:08.533Z,4.50
2023-04-18T01:01:36.820Z,4.38
2023-04-18T01:04:05.519Z,5.25
2023-04-18T01:06:35.123Z,5.60
2023-04-18T01:09:05.524Z,3.75
2023-04-18T01:11:33.965Z,5.78
2023-04-18T01:14:05.269Z,4.60
2023-04-18T01:16:37.173Z,4.88
2023-04-18T01:19:06.053Z,3.10
2023-04-18T01:21:37.329Z,4.43
2023-04-18T01:24:11.146Z,5.35
2023-04-18T01:26:39.644Z,4.40
2023-04-18T01:29:08.530Z,5.30
2023-04-18T01:31:37.162Z,4.47
2023-04-18T01:34:06.031Z,3.78
2023-04-18T01:36:34.884Z,3.67
2023-04-18T01:39:04.023Z,5.57
2023-04-18T01:41:33.647Z,6.95
2023-04-18T01:44:02.402Z,5.95
2023-04-18T01:46:30.916Z,4.90
2023-04-18T01:49:00.749Z,4.68
2023-04-18T01:51:29.078Z,4.47
2023-04-18T01:53:57.316Z,5.00
2023-04-18T01:56:26.109Z,4.15
2023-04-18T02:02:45.897Z,5.22
2023-04-18T02:05:14.344Z,5.88
2023-04-18T02:07:42.982Z,4.82
2023-04-18T02:10:12.252Z,4.60
2023-04-18T02:12:40.445Z,5.00
2023-04-18T02:15:10.001Z,4.50
2023-04-18T02:17:38.202Z,7.25
2023-04-18T02:20:09.220Z,4.07
2023-04-18T02:22:38.115Z,4.80
2023-04-18T02:25:07.030Z,5.18
2023-04-18T02:27:35.271Z,5.03
2023-04-18T02:30:03.447Z,5.15
2023-04-18T02:32:34.760Z,4.47
2023-04-18T02:35:02.955Z,5.50
2023-04-18T02:37:32.471Z,4.32
2023-04-18T02:40:00.580Z,5.27
2023-04-18T02:42:33.112Z,6.20
2023-04-18T02:45:02.731Z,4.47
2023-04-18T02:47:35.426Z,6.18
2023-04-18T02:50:09.863Z,6.05
2023-04-18T02:52:40.147Z,5.80
2023-04-18T02:55:10.376Z,4.53
2023-04-18T02:57:42.169Z,5.85
2023-04-18T03:00:25.560Z,4.55
2023-04-18T03:03:03.121Z,7.53
2023-04-18T03:05:50.738Z,5.80
2023-04-18T03:08:21.603Z,6.15
2023-04-18T03:10:50.114Z,5.18
2023-04-18T03:13:20.890Z,6.30
2023-04-18T03:15:49.732Z,5.40
2023-04-18T03:18:18.134Z,5.43
2023-04-18T03:20:47.967Z,12.50
2023-04-18T03:23:18.333Z,6.15
2023-04-18T03:25:48.611Z,6.80
2023-04-18T03:28:16.864Z,5.22
2023-04-18T03:30:45.409Z,6.30
2023-04-18T03:33:14.389Z,5.95
2023-04-18T03:35:43.539Z,6.65
2023-04-18T03:38:11.766Z,7.60
2023-04-18T03:40:42.135Z,6.70
2023-04-18T03:43:20.194Z,6.75
2023-04-18T03:45:48.761Z,6.82
2023-04-18T03:48:18.536Z,6.38
2023-04-18T03:50:48.175Z,7.32
2023-04-18T03:53:16.949Z,7.80
2023-04-18T03:55:45.330Z,8.40
2023-04-18T03:58:18.084Z,7.40
2023-04-18T04:00:48.017Z,7.15
2023-04-18T04:03:16.854Z,5.85
2023-04-18T04:05:47.849Z,5.88
2023-04-18T04:08:17.547Z,7.57
2023-04-18T04:10:46.829Z,8.20
2023-04-18T04:13:15.409Z,7.22
2023-04-18T04:15:45.903Z,7.70
2023-04-18T04:18:14.184Z,7.22
2023-04-18T04:20:46.674Z,8.27
2023-04-18T04:23:22.659Z,7.80
2023-04-18T04:25:53.031Z,7.13
2023-04-18T04:28:36.802Z,6.05
2023-04-18T04:31:10.240Z,7.78
2023-04-18T04:33:39.756Z,6.72
2023-04-18T04:36:18.651Z,10.07
2023-04-18T04:38:49.184Z,7.55
2023-04-18T04:41:18.725Z,7.32
2023-04-18T04:43:47.896Z,6.23
2023-04-18T04:46:24.940Z,5.75
2023-04-18T04:48:54.345Z,7.72
2023-04-18T04:51:22.562Z,7.05
2023-04-18T04:53:50.989Z,6.93
2023-04-18T04:56:19.480Z,7.60
2023-04-18T04:58:48.398Z,6.60
2023-04-18T05:01:25.944Z,7.32
2023-04-18T05:03:55.089Z,8.30
2023-04-18T05:06:23.377Z,6.50
2023-04-18T05:08:51.886Z,9.00
2023-04-18T05:11:21.051Z,8.10
2023-04-18T05:13:49.257Z,8.52
2023-04-18T05:16:17.976Z,7.53
2023-04-18T05:18:47.659Z,7.35
2023-04-18T05:21:15.776Z,5.60
2023-04-18T05:23:43.880Z,7.35
2023-04-18T05:26:12.066Z,5.70
2023-04-18T05:28:41.399Z,7.78
2023-04-18T05:31:09.635Z,6.80
2023-04-18T05:33:37.852Z,7.13
2023-04-18T05:36:08.054Z,7.45
2023-04-18T05:38:36.245Z,6.28
2023-04-18T05:41:04.407Z,9.13
2023-04-18T05:43:32.567Z,6.25
2023-04-18T05:46:00.726Z,7.53
2023-04-18T05:48:28.973Z,7.97
2023-04-18T05:50:57.810Z,9.20
2023-04-18T05:53:27.438Z,8.65
2023-04-18T05:55:57.522Z,6.43
2023-04-18T05:58:25.865Z,10.63
2023-04-18T06:00:54.291Z,7.72
2023-04-18T06:03:22.536Z,8.90
2023-04-18T06:05:51.063Z,8.10
2023-04-18T06:08:19.193Z,9.18
2023-04-18T06:10:48.707Z,11.57
2023-04-18T06:13:16.833Z,7.85
2023-04-18T06:15:45.071Z,7.63
2023-04-18T06:18:13.283Z,10.90
2023-04-18T06:20:42.127Z,7.93
2023-04-18T06:23:10.583Z,8.98
2023-04-18T06:25:38.720Z,9.35
2023-04-18T06:28:08.343Z,11.48
2023-04-18T06:30:36.590Z,8.88
2023-04-18T06:33:04.886Z,9.60
2023-04-18T06:35:33.277Z,10.20
2023-04-18T06:38:01.530Z,10.82
2023-04-18T06:40:29.763Z,10.38
2023-04-18T06:42:57.894Z,9.88
2023-04-18T06:45:27.432Z,10.85
2023-04-18T06:47:55.672Z,9.98
2023-04-18T06:50:24.023Z,11.20
2023-04-18T06:52:52.112Z,8.33
2023-04-18T06:55:20.353Z,9.82
2023-04-18T06:57:48.832Z,10.57
2023-04-18T07:00:17.571Z,9.20
2023-04-18T07:02:47.258Z,10.35
2023-04-18T07:05:15.778Z,10.45
2023-04-18T07:07:43.961Z,11.20
2023-04-18T07:10:12.300Z,10.77
2023-04-18T07:12:40.436Z,11.97
2023-04-18T07:15:09.843Z,10.70
2023-04-18T07:17:37.983Z,11.10
2023-04-18T07:20:09.086Z,9.65
2023-04-18T07:22:37.261Z,12.15
2023-04-18T07:25:06.089Z,10.90
2023-04-18T07:27:35.640Z,11.77
2023-04-18T07:30:03.937Z,11.52
2023-04-18T07:32:32.211Z,13.30
2023-04-18T07:35:00.384Z,11.20
2023-04-18T07:37:29.934Z,12.68
2023-04-18T07:39:58.121Z,12.23
2023-04-18T07:42:26.416Z,10.20
2023-04-18T07:44:58.737Z,11.65
2023-04-18T07:47:30.241Z,13.18
2023-04-18T07:49:59.146Z,8.98
2023-04-18T07:52:28.816Z,12.35
2023-04-18T07:54:56.967Z,11.30
2023-04-18T07:57:25.180Z,17.40
2023-04-18T07:59:53.866Z,11.68
2023-04-18T08:02:22.368Z,11.30
2023-04-18T08:04:52.049Z,11.13
2023-04-18T08:07:20.491Z,10.43
2023-04-18T08:09:49.944Z,13.90
2023-04-18T08:12:18.149Z,11.10
2023-04-18T08:14:46.356Z,10.30
2023-04-18T08:17:16.125Z,9.80
2023-04-18T08:19:45.581Z,12.80
2023-04-18T08:22:13.770Z,11.10
2023-04-18T08:24:57.212Z,10.93
2023-04-18T08:27:31.748Z,10.80
2023-04-18T08:30:00.527Z,14.30
2023-04-18T08:32:28.830Z,10.75
2023-04-18T08:34:57.499Z,11.52
2023-04-18T08:37:27.764Z,11.43
2023-04-18T08:39:56.092Z,13.40
2023-04-18T08:42:24.724Z,12.20
2023-04-18T08:44:54.282Z,10.80
2023-04-18T08:47:22.746Z,12.23
2023-04-18T08:49:52.199Z,11.80
2023-04-18T08:52:23.642Z,11.43
2023-04-18T08:54:52.418Z,11.27
2023-04-18T08:57:26.683Z,11.98
2023-04-18T08:59:56.471Z,12.00
2023-04-18T09:02:42.071Z,11.50
2023-04-18T09:05:15.141Z,14.20
2023-04-18T09:07:44.117Z,11.80
2023-04-18T09:10:13.784Z,9.18
2023-04-18T09:12:50.300Z,10.68
2023-04-18T09:15:23.588Z,12.95
2023-04-18T09:17:54.064Z,11.45
2023-04-18T09:20:34.627Z,12.63
2023-04-18T09:23:04.839Z,13.32
2023-04-18T09:25:36.004Z,11.45
2023-04-18T09:28:05.667Z,12.50
2023-04-18T09:30:38.353Z,11.85
2023-04-18T09:33:09.364Z,12.30
2023-04-18T09:35:38.485Z,11.40
2023-04-18T09:38:07.443Z,10.18
2023-04-18T09:40:35.918Z,12.88
2023-04-18T09:43:20.090Z,11.82
2023-04-18T09:45:49.728Z,11.90
2023-04-18T09:48:17.949Z,15.60
2023-04-18T09:50:49.184Z,12.98
2023-04-18T09:53:21.052Z,11.32
2023-04-18T09:55:52.329Z,13.37
2023-04-18T09:58:23.362Z,11.63
2023-04-18T10:00:55.099Z,14.30
2023-04-18T10:03:28.825Z,16.03
2023-04-18T10:05:57.948Z,13.50
2023-04-18T10:08:27.419Z,12.13
2023-04-18T10:10:58.594Z,13.38
2023-04-18T10:13:29.778Z,12.65
2023-04-18T10:15:59.718Z,14.35
2023-04-18T10:18:28.011Z,18.73
2023-04-18T10:21:04.073Z,15.00
2023-04-18T10:23:37.760Z,13.65
2023-04-18T10:26:06.437Z,13.00
2023-04-18T10:28:54.786Z,14.75
2023-04-18T10:31:25.579Z,14.68
2023-04-18T10:34:04.742Z,13.80
2023-04-18T10:36:34.169Z,14.10
2023-04-18T10:39:04.597Z,15.77
2023-04-18T10:41:34.585Z,13.85
2023-04-18T10:44:18.195Z,16.45
2023-04-18T10:47:32.682Z,16.90
2023-04-18T10:50:06.464Z,17.02
2023-04-18T10:52:35.962Z,16.80
2023-04-18T10:55:16.968Z,15.75
2023-04-18T10:57:46.162Z,18.03
2023-04-18T11:00:16.960Z,16.03
2023-04-18T11:02:54.167Z,14.90
2023-04-18T11:05:26.562Z,15.32
2023-04-18T11:07:55.303Z,16.23
2023-04-18T11:10:25.469Z,15.50
2023-04-18T11:12:54.666Z,14.90
2023-04-18T11:15:24.323Z,17.90
2023-04-18T11:18:03.108Z,18.58
2023-04-18T11:20:40.007Z,14.82
2023-04-18T11:23:17.842Z,16.00
2023-04-18T11:25:47.269Z,14.82
2023-04-18T11:28:21.045Z,15.07
2023-04-18T11:30:49.653Z,15.87
2023-04-18T11:33:18.010Z,16.35
2023-04-18T11:35:47.969Z,16.30
2023-04-18T11:38:16.916Z,14.73
2023-04-18T11:40:49.325Z,16.08
2023-04-18T11:43:21.999Z,16.25
2023-04-18T11:45:54.855Z,15.70
2023-04-18T11:48:23.546Z,13.82
2023-04-18T11:50:53.328Z,16.40
2023-04-18T11:53:34.056Z,14.20
2023-04-18T11:56:03.523Z,13.43
2023-04-18T11:58:33.082Z,14.98
2023-04-18T12:01:16.083Z,13.23
2023-04-18T12:03:45.243Z,15.38
2023-04-18T12:06:15.046Z,15.75
2023-04-18T12:08:44.621Z,14.13
2023-04-18T12:11:21.632Z,17.60
2023-04-18T12:13:49.972Z,14.18
2023-04-18T12:16:18.148Z,15.68
2023-04-18T12:18:47.322Z,16.13
2023-04-18T12:21:17.784Z,15.55
2023-04-18T12:23:46.388Z,13.13
2023-04-18T12:26:18.256Z,14.73
2023-04-18T12:28:48.010Z,14.05
2023-04-18T12:31:16.217Z,13.93
2023-04-18T12:33:44.433Z,13.52
2023-04-18T12:36:12.617Z,13.40
2023-04-18T12:38:42.312Z,16.60
2023-04-18T12:41:10.970Z,14.88
2023-04-18T12:43:39.095Z,13.85
2023-04-18T12:46:07.286Z,15.23
2023-04-18T12:48:35.564Z,14.95
2023-04-18T12:51:03.667Z,13.98
2023-04-18T12:53:31.831Z,19.45
2023-04-18T12:56:01.344Z,16.23
2023-04-18T12:58:29.470Z,15.18
2023-04-18T13:00:57.779Z,13.73
2023-04-18T13:03:26.418Z,16.52
2023-04-18T13:05:54.759Z,15.00
2023-04-18T13:08:23.413Z,15.10
2023-04-18T13:10:51.657Z,17.90
2023-04-18T13:13:21.591Z,15.57
2023-04-18T13:15:49.707Z,16.50
2023-04-18T13:18:17.828Z,16.85
2023-04-18T13:20:46.037Z,14.50
2023-04-18T13:23:14.198Z,12.90
2023-04-18T13:25:42.315Z,12.93
2023-04-18T13:28:10.371Z,12.27
2023-04-18T13:30:40.050Z,15.05
2023-04-18T13:33:08.247Z,14.20
2023-04-18T13:35:37.537Z,13.73
2023-04-18T13:38:05.711Z,13.77
2023-04-18T13:40:34.140Z,13.13
2023-04-18T13:43:02.331Z,13.07
2023-04-18T13:45:30.859Z,16.03
2023-04-18T13:48:00.625Z,12.70
2023-04-18T13:50:28.790Z,13.32
2023-04-18T13:52:57.213Z,12.45
2023-04-18T13:55:25.334Z,12.60
2023-04-18T13:57:53.524Z,11.13
2023-04-18T14:00:22.056Z,12.65
2023-04-18T14:02:51.091Z,12.90
2023-04-18T14:05:20.884Z,14.82
2023-04-18T14:07:49.570Z,12.40
2023-04-18T14:10:17.851Z,11.18
2023-04-18T14:12:45.961Z,12.23
2023-04-18T14:15:14.114Z,13.80
2023-04-18T14:17:44.114Z,10.82
2023-04-18T14:20:15.549Z,11.85
2023-04-18T14:22:45.455Z,9.75
2023-04-18T14:25:14.284Z,10.70
2023-04-18T14:27:42.390Z,11.15
2023-04-18T14:30:11.790Z,9.55
2023-04-18T14:32:40.199Z,10.65
2023-04-18T14:35:09.310Z,11.95
2023-04-18T14:37:37.558Z,10.13
2023-04-18T14:40:09.648Z,12.68
2023-04-18T14:42:38.716Z,11.65
2023-04-18T14:45:08.345Z,12.25
2023-04-18T14:47:39.013Z,11.20
2023-04-18T14:50:08.748Z,10.40
2023-04-18T14:52:37.099Z,10.50
2023-04-18T14:55:09.942Z,12.83
2023-04-18T14:57:39.164Z,9.68
2023-04-18T15:00:10.291Z,12.52
2023-04-18T15:02:38.519Z,11.30
2023-04-18T15:05:08.280Z,12.40
2023-04-18T15:07:37.855Z,10.38
2023-04-18T15:10:08.951Z,11.52
2023-04-18T15:12:37.193Z,10.45
2023-04-18T15:15:06.199Z,10.27
2023-04-18T15:17:34.422Z,12.50
2023-04-18T15:20:05.533Z,14.02
2023-04-18T15:22:33.667Z,10.15
2023-04-18T15:25:01.825Z,10.98
2023-04-18T15:27:31.383Z,10.45
2023-04-18T15:29:59.527Z,11.95
2023-04-18T15:32:27.706Z,9.75
2023-04-18T15:34:55.948Z,12.52
2023-04-18T15:37:24.084Z,9.55
2023-04-18T15:39:52.151Z,10.55
2023-04-18T15:42:20.329Z,9.32
2023-04-18T15:44:50.565Z,10.05
2023-04-18T15:47:18.842Z,9.63
2023-04-18T15:49:47.174Z,10.55
2023-04-18T15:52:15.869Z,9.90
2023-04-18T15:54:44.418Z,12.35
2023-04-18T15:57:13.781Z,10.80
2023-04-18T15:59:41.895Z,10.45
2023-04-18T16:02:11.690Z,11.55
2023-04-18T16:04:39.991Z,11.60
2023-04-18T16:07:08.830Z,10.20
2023-04-18T16:09:37.070Z,10.45
2023-04-18T16:12:07.147Z,12.27
2023-04-18T16:14:35.449Z,12.40
2023-04-18T16:17:03.860Z,10.47
2023-04-18T16:19:36.204Z,10.37
2023-04-18T16:22:04.504Z,12.65
2023-04-18T16:24:32.638Z,12.27
2023-04-18T16:27:00.832Z,10.18
2023-04-18T16:29:31.732Z,11.73
2023-04-18T16:32:00.011Z,11.85
2023-04-18T16:34:28.249Z,10.30
2023-04-18T16:36:57.713Z,10.00
2023-04-18T16:39:25.867Z,10.50
2023-04-18T16:41:53.998Z,11.25
2023-04-18T16:44:22.219Z,10.63
2023-04-18T16:46:50.507Z,11.23
2023-04-18T16:49:19.059Z,10.15
2023-04-18T16:51:47.392Z,13.65
2023-04-18T16:54:17.388Z,10.95
2023-04-18T16:56:45.547Z,13.13
2023-04-18T16:59:13.695Z,15.45
2023-04-18T17:01:41.842Z,10.27
2023-04-18T17:04:10.115Z,13.85
2023-04-18T17:06:38.314Z,10.55
2023-04-18T17:09:06.935Z,10.50
2023-04-18T17:11:39.564Z,11.50
2023-04-18T17:14:09.128Z,10.73
2023-04-18T17:16:39.418Z,10.25
2023-04-18T17:19:07.636Z,9.90
2023-04-18T17:21:36.440Z,12.10
2023-04-18T17:24:06.649Z,11.20
2023-04-18T17:26:37.365Z,10.27
2023-04-18T17:29:05.693Z,10.95
2023-04-18T17:31:34.095Z,10.55
2023-04-18T17:34:03.522Z,9.40
2023-04-18T17:36:31.697Z,10.80
2023-04-18T17:39:06.134Z,11.82
2023-04-18T17:41:39.276Z,9.68
2023-04-18T17:44:10.196Z,10.35
2023-04-18T17:46:38.459Z,9.98
2023-04-18T17:49:06.673Z,12.10
2023-04-18T17:51:34.805Z,11.83
2023-04-18T17:54:02.960Z,12.68
2023-04-18T17:56:31.654Z,9.52
2023-04-18T17:59:01.153Z,9.73
2023-04-18T18:01:30.424Z,10.18
2023-04-18T18:03:58.906Z,9.70
2023-04-18T18:06:28.341Z,8.40
2023-04-18T18:08:56.669Z,13.45
2023-04-18T18:11:24.825Z,12.60
2023-04-18T18:13:54.665Z,10.18
2023-04-18T18:16:25.035Z,9.27
2023-04-18T18:18:53.300Z,8.93
2023-04-18T18:21:21.468Z,9.68
2023-04-18T18:23:49.711Z,11.70
2023-04-18T18:26:17.930Z,9.60
2023-04-18T18:28:46.207Z,13.30
2023-04-18T18:31:14.592Z,9.80
2023-04-18T18:33:44.166Z,8.30
2023-04-18T18:36:12.289Z,9.40
2023-04-18T18:38:40.390Z,7.57
2023-04-18T18:41:08.848Z,10.43
2023-04-18T18:43:37.190Z,9.43
2023-04-18T18:46:05.291Z,8.48
2023-04-18T18:48:36.857Z,9.93
2023-04-18T18:51:06.404Z,11.45
2023-04-18T18:53:34.607Z,9.83
2023-04-18T18:56:03.827Z,10.37
2023-04-18T18:58:31.956Z,9.57
2023-04-18T19:01:02.321Z,12.45
2023-04-18T19:03:30.652Z,8.32
2023-04-18T19:05:58.864Z,10.05
2023-04-18T19:08:28.331Z,9.23
2023-04-18T19:10:56.491Z,10.27
2023-04-18T19:13:25.126Z,10.98
2023-04-18T19:15:53.309Z,11.10
2023-04-18T19:18:21.457Z,13.17
2023-04-18T19:20:50.681Z,11.50
2023-04-18T19:23:19.377Z,9.98
2023-04-18T19:25:49.020Z,12.18
2023-04-18T19:28:18.335Z,11.20
2023-04-18T19:30:46.591Z,8.70
2023-04-18T19:33:14.739Z,8.93
2023-04-18T19:35:43.291Z,9.55
2023-04-18T19:38:11.384Z,10.70
2023-04-18T19:40:39.749Z,9.85
2023-04-18T19:43:09.390Z,9.80
2023-04-18T19:45:37.711Z,10.47
2023-04-18T19:48:06.091Z,9.83
2023-04-18T19:50:34.302Z,10.57
2023-04-18T19:53:02.460Z,9.40
2023-04-18T19:55:31.542Z,11.40
2023-04-18T19:58:00.862Z,11.10
2023-04-18T20:00:30.505Z,9.70
2023-04-18T20:02:59.498Z,11.32
2023-04-18T20:05:27.974Z,12.07
2023-04-18T20:07:56.158Z,10.80
2023-04-18T20:10:24.496Z,10.67
2023-04-18T20:12:52.601Z,10.70
2023-04-18T20:15:20.993Z,9.70
2023-04-18T20:17:50.660Z,10.00
2023-04-18T20:20:18.791Z,11.73
2023-04-18T20:22:47.726Z,11.00
2023-04-18T20:25:16.064Z,9.90
2023-04-18T20:27:44.145Z,10.13
2023-04-18T20:30:12.825Z,12.25
2023-04-18T20:32:40.964Z,12.65
2023-04-18T20:35:10.915Z,12.07
2023-04-18T20:37:39.314Z,11.70
2023-04-18T20:40:09.954Z,12.10
2023-04-18T20:42:38.902Z,10.68
2023-04-18T20:45:10.842Z,10.48
2023-04-18T20:47:40.142Z,11.77
2023-04-18T20:50:11.201Z,10.38
2023-04-18T20:52:42.590Z,11.18
2023-04-18T20:55:11.019Z,13.10
2023-04-18T20:57:39.320Z,10.68
2023-04-18T21:00:10.532Z,10.95
2023-04-18T21:02:38.916Z,10.43
2023-04-18T21:05:07.742Z,12.00
2023-04-18T21:07:37.905Z,11.40
2023-04-18T21:10:06.800Z,12.67
2023-04-18T21:12:34.945Z,13.20
2023-04-18T21:15:03.470Z,10.50
2023-04-18T21:17:31.639Z,10.45
2023-04-18T21:20:00.191Z,11.98
2023-04-18T21:22:28.321Z,13.35
2023-04-18T21:24:58.107Z,10.55
2023-04-18T21:27:26.258Z,10.87
2023-04-18T21:29:54.375Z,11.00
2023-04-18T21:32:22.499Z,11.32
2023-04-18T21:34:50.692Z,12.10
2023-04-18T21:37:18.922Z,13.85
2023-04-18T21:39:47.042Z,12.88
2023-04-18T21:42:16.863Z,12.98
2023-04-18T21:44:45.111Z,12.05
2023-04-18T21:47:13.438Z,11.07
2023-04-18T21:49:42.975Z,11.80
2023-04-18T21:52:11.171Z,13.50
2023-04-18T21:54:39.851Z,12.70
2023-04-18T21:57:08.005Z,12.10
2023-04-18T21:59:37.462Z,12.38
2023-04-18T22:02:05.968Z,13.57
2023-04-18T22:04:34.578Z,17.38
2023-04-18T22:07:02.781Z,11.88
2023-04-18T22:09:31.341Z,14.77
2023-04-18T22:11:59.511Z,11.70
2023-04-18T22:14:28.191Z,12.50
2023-04-18T22:16:58.745Z,13.00
2023-04-18T22:19:29.332Z,12.48
2023-04-18T22:21:57.538Z,14.40
2023-04-18T22:24:26.638Z,12.07
2023-04-18T22:26:54.882Z,12.70
2023-04-18T22:29:22.975Z,12.80
2023-04-18T22:31:51.156Z,13.30
2023-04-18T22:34:20.803Z,12.40
2023-04-18T22:36:49.073Z,12.43
2023-04-18T22:39:17.187Z,14.40
2023-04-18T22:41:45.436Z,13.73
2023-04-18T22:44:13.861Z,12.77
2023-04-18T22:46:42.644Z,12.38
2023-04-18T22:49:10.819Z,13.00
2023-04-18T22:51:40.428Z,14.23
2023-04-18T22:54:08.593Z,12.50
2023-04-18T22:56:36.727Z,12.93
2023-04-18T22:59:04.831Z,13.63
2023-04-18T23:01:32.985Z,11.48
2023-04-18T23:04:01.562Z,12.52
2023-04-18T23:06:29.992Z,12.65
2023-04-18T23:08:59.789Z,16.02
2023-04-18T23:11:27.957Z,14.90
2023-04-18T23:13:56.179Z,13.33
2023-04-18T23:16:24.488Z,14.73
2023-04-18T23:18:52.834Z,13.13
2023-04-18T23:21:21.042Z,13.37
2023-04-18T23:23:49.235Z,12.60
2023-04-18T23:26:18.804Z,12.65
2023-04-18T23:28:47.007Z,13.63
2023-04-18T23:31:15.528Z,13.60
2023-04-18T23:33:44.293Z,12.35
2023-04-18T23:36:12.923Z,14.00
2023-04-18T23:38:41.888Z,15.02
2023-04-18T23:41:10.086Z,15.25
2023-04-18T23:43:39.606Z,10.48
2023-04-18T23:46:07.825Z,13.15
2023-04-18T23:48:35.988Z,13.40
2023-04-18T23:51:04.199Z,12.65
2023-04-18T23:53:32.388Z,11.48
2023-04-18T23:56:00.657Z,14.27
2023-04-18T23:58:28.928Z,14.60
